createdAt,value
2023-03-02T00:01:16.287Z,4.18
2023-03-02T00:04:22.125Z,3.67
2023-03-02T00:07:29.263Z,2.85
2023-03-02T00:10:32.632Z,3.55
2023-03-02T00:13:39.048Z,2.92
2023-03-02T00:16:41.924Z,3.40
2023-03-02T00:19:45.647Z,2.45
2023-03-02T00:22:49.342Z,3.45
2023-03-02T00:25:52.267Z,2.67
2023-03-02T00:28:56.964Z,2.70
2023-03-02T00:32:00.074Z,2.30
2023-03-02T00:35:03.320Z,2.45
2023-03-02T00:38:07.256Z,2.92
2023-03-02T00:41:12.066Z,2.85
2023-03-02T00:44:17.694Z,2.00
2023-03-02T00:47:20.871Z,2.17
2023-03-02T00:50:24.059Z,2.35
2023-03-02T00:53:27.119Z,3.55
2023-03-02T00:56:30.691Z,3.47
2023-03-02T00:59:35.270Z,3.78
2023-03-02T01:02:49.650Z,1.90
2023-03-02T01:05:56.317Z,2.53
2023-03-02T01:08:59.332Z,2.95
2023-03-02T01:12:02.233Z,3.00
2023-03-02T01:15:08.242Z,2.90
2023-03-02T01:18:12.210Z,3.70
2023-03-02T01:21:17.127Z,2.83
2023-03-02T01:24:20.123Z,6.75
2023-03-02T01:27:23.303Z,3.03
2023-03-02T01:30:28.836Z,3.70
2023-03-02T01:33:32.084Z,4.55
2023-03-02T01:36:35.466Z,2.95
2023-03-02T01:39:38.514Z,4.90
2023-03-02T01:42:48.440Z,2.05
2023-03-02T01:45:55.414Z,2.45
2023-03-02T01:49:08.213Z,2.03
2023-03-02T01:52:24.154Z,3.88
2023-03-02T01:55:32.602Z,2.67
2023-03-02T01:58:38.126Z,3.25
2023-03-02T02:01:46.150Z,2.50
2023-03-02T02:04:51.253Z,2.30
2023-03-02T02:07:54.367Z,1.80
2023-03-02T02:10:58.048Z,3.30
2023-03-02T02:14:03.275Z,2.67
2023-03-02T02:17:07.828Z,1.75
2023-03-02T02:20:22.232Z,2.72
2023-03-02T02:23:29.770Z,3.20
2023-03-02T02:26:38.571Z,1.63
2023-03-02T02:29:45.894Z,2.35
2023-03-02T02:32:53.457Z,2.13
2023-03-02T02:36:03.154Z,1.92
2023-03-02T02:39:09.457Z,2.08
2023-03-02T02:42:18.090Z,1.90
2023-03-02T02:45:24.326Z,2.05
2023-03-02T02:48:31.130Z,2.05
2023-03-02T02:51:35.519Z,3.00
2023-03-02T02:54:39.923Z,2.25
2023-03-02T02:57:44.648Z,2.08
2023-03-02T03:00:47.800Z,2.03
2023-03-02T03:03:54.185Z,2.67
2023-03-02T03:06:59.760Z,3.25
2023-03-02T03:10:06.267Z,2.95
2023-03-02T03:13:12.414Z,1.95
2023-03-02T03:16:18.615Z,1.95
2023-03-02T03:19:24.510Z,1.85
2023-03-02T03:22:28.507Z,4.47
2023-03-02T03:25:35.018Z,1.98
2023-03-02T03:28:40.348Z,3.72
2023-03-02T03:31:43.822Z,2.10
2023-03-02T03:34:48.422Z,2.33
2023-03-02T03:37:58.304Z,2.72
2023-03-02T03:41:01.839Z,2.00
2023-03-02T03:44:06.727Z,2.35
2023-03-02T03:47:11.887Z,2.17
2023-03-02T03:50:14.941Z,2.00
2023-03-02T03:53:19.504Z,2.95
2023-03-02T03:56:22.676Z,2.15
2023-03-02T03:59:28.286Z,3.75
2023-03-02T04:02:38.280Z,2.30
2023-03-02T04:05:41.532Z,1.63
2023-03-02T04:08:44.584Z,2.30
2023-03-02T04:11:52.280Z,2.00
2023-03-02T04:14:57.062Z,1.95
2023-03-02T04:18:00.686Z,4.20
2023-03-02T04:21:03.708Z,2.35
2023-03-02T04:24:07.884Z,2.70
2023-03-02T04:27:10.932Z,1.85
2023-03-02T04:30:17.192Z,3.15
2023-03-02T04:33:20.512Z,2.03
2023-03-02T04:36:24.321Z,3.28
2023-03-02T04:39:28.265Z,2.17
2023-03-02T04:42:31.472Z,2.72
2023-03-02T04:45:35.957Z,3.05
2023-03-02T04:48:38.955Z,2.40
2023-03-02T04:51:44.186Z,2.65
2023-03-02T04:54:47.130Z,2.55
2023-03-02T04:57:50.655Z,2.55
2023-03-02T05:01:02.110Z,2.88
2023-03-02T05:04:05.667Z,3.13
2023-03-02T05:07:08.695Z,3.40
2023-03-02T05:10:13.005Z,2.25
2023-03-02T05:13:15.954Z,1.88
2023-03-02T05:16:20.805Z,2.13
2023-03-02T05:19:24.007Z,4.68
2023-03-02T05:22:27.321Z,2.42
2023-03-02T05:25:31.891Z,2.30
2023-03-02T05:28:34.961Z,2.15
2023-03-02T05:31:41.058Z,2.00
2023-03-02T05:34:44.079Z,2.97
2023-03-02T05:37:47.145Z,2.85
2023-03-02T05:40:50.225Z,2.70
2023-03-02T05:43:54.470Z,3.50
2023-03-02T05:46:59.133Z,2.92
2023-03-02T05:50:02.260Z,2.08
2023-03-02T05:53:05.368Z,2.75
2023-03-02T05:56:09.066Z,1.88
2023-03-02T05:59:12.065Z,2.63
2023-03-02T06:02:16.366Z,2.65
2023-03-02T06:05:22.668Z,2.95
2023-03-02T06:08:25.660Z,2.92
2023-03-02T06:11:30.209Z,3.47
2023-03-02T06:14:33.596Z,1.80
2023-03-02T06:17:38.236Z,2.33
2023-03-02T06:20:41.990Z,2.35
2023-03-02T06:23:44.964Z,2.00
2023-03-02T06:26:47.840Z,2.33
2023-03-02T06:29:50.813Z,2.63
2023-03-02T06:32:55.456Z,1.80
2023-03-02T06:35:58.735Z,2.33
2023-03-02T06:39:01.748Z,2.15
2023-03-02T06:42:04.828Z,3.15
2023-03-02T06:45:09.195Z,3.95
2023-03-02T06:48:13.769Z,2.08
2023-03-02T06:51:17.885Z,1.85
2023-03-02T06:54:23.107Z,1.65
2023-03-02T06:57:33.623Z,2.47
2023-03-02T07:00:36.633Z,2.38
2023-03-02T07:03:41.035Z,3.60
2023-03-02T07:06:44.108Z,8.93
2023-03-02T07:09:46.992Z,8.75
2023-03-02T07:12:49.884Z,8.00
2023-03-02T07:15:53.618Z,3.65
2023-03-02T07:18:58.059Z,4.65
2023-03-02T07:22:01.100Z,6.88
2023-03-02T07:25:04.220Z,2.80
2023-03-02T07:28:07.349Z,5.13
2023-03-02T07:31:11.224Z,5.18
2023-03-02T07:34:16.329Z,4.88
2023-03-02T07:37:20.088Z,4.65
2023-03-02T07:40:23.128Z,6.15
2023-03-02T07:43:27.225Z,3.25
2023-03-02T07:46:30.559Z,6.32
2023-03-02T07:49:35.478Z,3.95
2023-03-02T07:52:38.611Z,1.73
2023-03-02T07:55:41.911Z,3.05
2023-03-02T07:58:44.988Z,3.15
2023-03-02T08:01:48.076Z,3.38
2023-03-02T08:04:53.406Z,3.13
2023-03-02T08:07:56.279Z,2.63
2023-03-02T08:11:06.168Z,3.10
2023-03-02T08:14:09.129Z,3.88
2023-03-02T08:17:12.071Z,2.45
2023-03-02T08:20:16.532Z,2.10
2023-03-02T08:23:19.513Z,3.47
2023-03-02T08:26:22.828Z,2.90
2023-03-02T08:29:25.854Z,2.45
2023-03-02T08:32:28.867Z,2.33
2023-03-02T08:35:33.312Z,3.30
2023-03-02T08:38:36.996Z,3.67
2023-03-02T08:41:39.959Z,2.45
2023-03-02T08:44:42.870Z,3.22
2023-03-02T08:47:45.840Z,2.55
2023-03-02T08:50:57.472Z,3.90
2023-03-02T08:54:00.455Z,3.40
2023-03-02T08:57:04.010Z,3.25
2023-03-02T09:00:12.017Z,2.72
2023-03-02T09:03:15.124Z,3.28
2023-03-02T09:06:19.600Z,4.28
2023-03-02T09:09:22.544Z,6.38
2023-03-02T09:12:25.645Z,6.15
2023-03-02T09:15:28.708Z,2.30
2023-03-02T09:18:32.061Z,3.25
2023-03-02T09:21:36.538Z,2.88
2023-03-02T09:24:39.550Z,4.03
2023-03-02T09:27:42.874Z,2.00
2023-03-02T09:30:50.445Z,2.47
2023-03-02T09:33:53.474Z,3.25
2023-03-02T09:36:58.019Z,2.60
2023-03-02T09:40:01.080Z,2.35
2023-03-02T09:43:23.469Z,4.50
2023-03-02T09:46:31.420Z,11.73
2023-03-02T09:49:49.205Z,13.25
2023-03-02T09:53:06.917Z,13.75
2023-03-02T09:56:16.357Z,12.52
2023-03-02T09:59:25.469Z,26.95
2023-03-02T10:02:32.419Z,13.80
2023-03-02T10:05:41.524Z,9.25
2023-03-02T10:08:45.925Z,9.93
2023-03-02T10:12:02.577Z,9.52
2023-03-02T10:15:12.532Z,11.45
2023-03-02T10:18:21.335Z,13.63
2023-03-02T10:21:29.871Z,14.63
2023-03-02T10:24:40.870Z,10.02
2023-03-02T10:27:45.583Z,7.43
2023-03-02T10:30:54.092Z,13.48
2023-03-02T10:33:57.936Z,17.45
2023-03-02T10:37:01.012Z,14.65
2023-03-02T10:40:05.945Z,11.75
2023-03-02T10:43:16.507Z,13.70
2023-03-02T10:46:19.682Z,18.17
2023-03-02T10:49:29.046Z,10.30
2023-03-02T10:52:32.101Z,13.38
2023-03-02T10:55:36.506Z,20.92
2023-03-02T10:58:39.487Z,16.52
2023-03-02T11:01:42.399Z,14.93
2023-03-02T11:04:46.340Z,15.20
2023-03-02T11:07:53.796Z,13.43
2023-03-02T11:11:01.218Z,16.20
2023-03-02T11:14:16.897Z,16.48
2023-03-02T11:17:31.750Z,12.13
2023-03-02T11:20:37.545Z,21.77
2023-03-02T11:23:57.870Z,10.93
2023-03-02T11:27:07.115Z,16.88
2023-03-02T11:30:17.051Z,15.73
2023-03-02T11:33:24.976Z,12.93
2023-03-02T11:36:43.642Z,9.48
2023-03-02T11:40:01.461Z,12.68
2023-03-02T11:43:05.900Z,11.45
2023-03-02T11:46:23.335Z,9.73
2023-03-02T11:49:38.337Z,12.88
2023-03-02T11:52:47.585Z,11.57
2023-03-02T11:55:51.120Z,12.93
2023-03-02T11:59:00.347Z,9.70
2023-03-02T12:02:04.127Z,9.13
2023-03-02T12:05:09.900Z,9.70
2023-03-02T12:08:32.947Z,13.05
2023-03-02T12:11:39.543Z,9.55
2023-03-02T12:14:44.361Z,9.45
2023-03-02T12:17:47.338Z,10.60
2023-03-02T12:21:00.037Z,9.38
2023-03-02T12:24:06.302Z,15.88
2023-03-02T12:27:25.970Z,8.95
2023-03-02T12:30:31.575Z,9.35
2023-03-02T12:33:42.422Z,11.57
2023-03-02T12:36:45.807Z,8.70
2023-03-02T12:40:39.333Z,9.93
2023-03-02T12:43:48.555Z,8.48
2023-03-02T12:46:54.401Z,11.55
2023-03-02T12:49:59.716Z,17.65
2023-03-02T12:53:05.340Z,11.90
2023-03-02T12:56:09.721Z,11.30
2023-03-02T12:59:22.484Z,13.00
2023-03-02T13:02:29.695Z,12.30
2023-03-02T13:05:35.428Z,10.73
2023-03-02T13:08:38.582Z,14.88
2023-03-02T13:11:44.386Z,14.35
2023-03-02T13:14:53.027Z,11.18
2023-03-02T13:17:59.460Z,14.73
2023-03-02T13:21:04.704Z,10.73
2023-03-02T13:24:35.972Z,9.00
2023-03-02T13:27:38.994Z,10.75
2023-03-02T13:30:47.766Z,11.68
2023-03-02T13:33:54.910Z,15.60
2023-03-02T13:36:58.142Z,11.10
2023-03-02T13:40:03.312Z,12.75
2023-03-02T13:43:21.684Z,10.90
2023-03-02T13:46:36.759Z,11.80
2023-03-02T13:49:41.468Z,10.48
2023-03-02T13:52:44.474Z,12.93
2023-03-02T13:55:47.574Z,11.18
2023-03-02T13:58:50.627Z,10.40
2023-03-02T14:01:53.880Z,14.70
2023-03-02T14:04:58.714Z,10.55
2023-03-02T14:08:02.804Z,9.00
2023-03-02T14:11:07.530Z,14.05
2023-03-02T14:14:15.365Z,9.45
2023-03-02T14:17:23.752Z,17.67
2023-03-02T14:20:28.079Z,12.45
2023-03-02T14:23:31.189Z,16.90
2023-03-02T14:26:36.585Z,12.55
2023-03-02T14:29:39.944Z,14.05
2023-03-02T14:32:42.946Z,12.55
2023-03-02T14:35:48.107Z,10.43
2023-03-02T14:38:51.076Z,14.77
2023-03-02T14:41:55.067Z,10.88
2023-03-02T14:44:59.848Z,15.48
2023-03-02T14:48:03.093Z,12.02
2023-03-02T14:51:19.994Z,20.55
2023-03-02T14:54:23.121Z,12.95
2023-03-02T14:57:28.661Z,15.02
2023-03-02T15:00:31.922Z,11.80
2023-03-02T15:03:34.982Z,12.40
2023-03-02T15:06:42.375Z,11.02
2023-03-02T15:09:45.590Z,10.80
2023-03-02T15:12:49.118Z,12.10
2023-03-02T15:15:52.779Z,10.88
2023-03-02T15:18:58.738Z,11.45
2023-03-02T15:22:03.331Z,9.38
2023-03-02T15:25:07.316Z,13.60
2023-03-02T15:28:11.353Z,12.68
2023-03-02T15:31:16.358Z,12.80
2023-03-02T15:34:19.515Z,10.70
2023-03-02T15:37:23.801Z,10.07
2023-03-02T15:40:26.817Z,9.90
2023-03-02T15:43:29.751Z,12.45
2023-03-02T15:46:32.776Z,12.93
2023-03-02T15:49:35.822Z,12.38
2023-03-02T15:52:40.142Z,10.40
2023-03-02T15:55:43.172Z,11.15
2023-03-02T15:58:50.374Z,9.95
2023-03-02T16:01:53.667Z,10.98
2023-03-02T16:04:56.662Z,12.23
2023-03-02T16:08:01.004Z,9.45
2023-03-02T16:11:07.432Z,15.75
2023-03-02T16:14:10.799Z,9.38
2023-03-02T16:17:13.701Z,10.43
2023-03-02T16:20:16.965Z,14.60
2023-03-02T16:23:21.398Z,17.80
2023-03-02T16:26:24.422Z,14.52
2023-03-02T16:29:27.507Z,19.27
2023-03-02T16:32:33.044Z,12.10
2023-03-02T16:35:37.555Z,12.93
2023-03-02T16:38:41.911Z,12.90
2023-03-02T16:41:46.223Z,11.25
2023-03-02T16:44:50.921Z,10.25
2023-03-02T16:47:54.079Z,12.38
2023-03-02T16:50:58.640Z,12.60
2023-03-02T16:54:03.144Z,12.80
2023-03-02T16:57:06.170Z,13.27
2023-03-02T17:00:11.020Z,12.45
2023-03-02T17:03:14.076Z,9.95
2023-03-02T17:06:19.203Z,13.68
2023-03-02T17:09:23.453Z,9.88
2023-03-02T17:12:26.621Z,11.20
2023-03-02T17:15:29.751Z,9.70
2023-03-02T17:18:34.002Z,10.77
2023-03-02T17:21:37.024Z,13.98
2023-03-02T17:24:41.457Z,15.45
2023-03-02T17:27:44.803Z,10.18
2023-03-02T17:30:47.879Z,10.77
2023-03-02T17:33:50.932Z,14.10
2023-03-02T17:36:54.023Z,13.48
2023-03-02T17:39:58.477Z,17.33
2023-03-02T17:43:01.719Z,25.48
2023-03-02T17:46:16.438Z,14.95
2023-03-02T17:49:19.450Z,11.18
2023-03-02T17:52:22.400Z,14.68
2023-03-02T17:55:27.000Z,15.75
2023-03-02T17:58:39.365Z,14.18
2023-03-02T18:01:47.521Z,16.35
2023-03-02T18:04:50.569Z,17.05
2023-03-02T18:07:54.607Z,16.92
2023-03-02T18:10:58.873Z,18.25
2023-03-02T18:14:01.809Z,16.48
2023-03-02T18:17:07.546Z,13.05
2023-03-02T18:20:12.022Z,16.10
2023-03-02T18:23:15.290Z,16.75
2023-03-02T18:26:19.764Z,15.55
2023-03-02T18:29:23.012Z,15.23
2023-03-02T18:32:26.017Z,12.23
2023-03-02T18:35:29.001Z,18.83
2023-03-02T18:38:32.388Z,12.30
2023-03-02T18:41:36.775Z,12.07
2023-03-02T18:44:39.642Z,13.15
2023-03-02T18:47:44.210Z,12.23
2023-03-02T18:50:48.744Z,15.05
2023-03-02T18:53:52.634Z,14.85
2023-03-02T18:56:57.034Z,15.57
2023-03-02T19:00:00.003Z,16.58
2023-03-02T19:03:02.997Z,14.35
2023-03-02T19:06:08.131Z,12.45
2023-03-02T19:09:11.449Z,14.60
2023-03-02T19:12:15.756Z,15.25
2023-03-02T19:15:19.508Z,15.13
2023-03-02T19:18:24.804Z,13.82
2023-03-02T19:21:27.828Z,13.10
2023-03-02T19:24:30.724Z,16.75
2023-03-02T19:27:35.352Z,16.45
2023-03-02T19:30:40.090Z,14.05
2023-03-02T19:33:45.161Z,16.45
2023-03-02T19:36:48.171Z,17.02
2023-03-02T19:39:51.138Z,16.48
2023-03-02T19:42:55.452Z,16.00
2023-03-02T19:45:58.699Z,17.35
2023-03-02T19:49:01.722Z,13.88
2023-03-02T19:52:04.991Z,15.48
2023-03-02T19:55:10.458Z,13.80
2023-03-02T19:58:17.351Z,14.18
2023-03-02T20:01:24.911Z,14.70
2023-03-02T20:04:27.972Z,15.25
2023-03-02T20:07:31.031Z,13.63
2023-03-02T20:10:36.864Z,13.13
2023-03-02T20:13:41.223Z,14.73
2023-03-02T20:16:44.171Z,17.20
2023-03-02T20:19:47.508Z,14.82
2023-03-02T20:22:50.444Z,18.25
2023-03-02T20:25:53.495Z,16.25
2023-03-02T20:29:00.497Z,14.85
2023-03-02T20:32:04.439Z,16.83
2023-03-02T20:35:07.623Z,15.00
2023-03-02T20:38:16.680Z,14.65
2023-03-02T20:41:20.553Z,13.50
2023-03-02T20:44:25.566Z,14.10
2023-03-02T20:47:29.762Z,14.27
2023-03-02T20:50:33.807Z,14.40
2023-03-02T20:53:36.860Z,13.27
2023-03-02T20:56:39.830Z,14.98
2023-03-02T20:59:45.839Z,15.38
2023-03-02T21:02:49.527Z,15.05
2023-03-02T21:05:52.516Z,16.08
2023-03-02T21:08:55.505Z,20.58
2023-03-02T21:11:58.947Z,17.65
2023-03-02T21:15:04.077Z,19.55
2023-03-02T21:18:07.088Z,22.30
2023-03-02T21:21:10.152Z,26.13
2023-03-02T21:24:16.989Z,24.40
2023-03-02T21:27:20.219Z,22.10
2023-03-02T21:30:27.647Z,23.08
2023-03-02T21:33:30.568Z,18.95
2023-03-02T21:36:33.869Z,19.83
2023-03-02T21:39:37.236Z,16.70
2023-03-02T21:42:40.340Z,28.25
2023-03-02T21:45:44.925Z,20.45
2023-03-02T21:48:48.884Z,19.17
2023-03-02T21:51:52.279Z,20.20
2023-03-02T21:54:55.538Z,17.02
2023-03-02T21:57:59.106Z,20.83
2023-03-02T22:01:03.502Z,17.15
2023-03-02T22:04:06.752Z,20.38
2023-03-02T22:07:09.658Z,21.65
2023-03-02T22:10:23.859Z,17.70
2023-03-02T22:13:28.689Z,19.25
2023-03-02T22:16:38.478Z,21.70
2023-03-02T22:19:44.661Z,21.40
2023-03-02T22:22:49.030Z,18.35
2023-03-02T22:25:54.959Z,13.85
2023-03-02T22:29:07.355Z,17.98
2023-03-02T22:32:19.822Z,15.93
2023-03-02T22:35:26.475Z,13.85
2023-03-02T22:38:31.100Z,17.70
2023-03-02T22:41:34.036Z,15.77
2023-03-02T22:44:37.240Z,17.45
2023-03-02T22:47:42.019Z,26.40
2023-03-02T22:50:46.739Z,16.27
2023-03-02T22:53:51.835Z,17.65
2023-03-02T22:56:56.955Z,13.70
2023-03-02T23:00:35.743Z,16.98
2023-03-02T23:03:41.728Z,18.70
2023-03-02T23:06:46.512Z,17.35
2023-03-02T23:09:50.294Z,13.88
2023-03-02T23:12:53.297Z,18.00
2023-03-02T23:15:56.331Z,12.98
2023-03-02T23:19:01.221Z,12.25
2023-03-02T23:22:04.846Z,15.93
2023-03-02T23:25:09.133Z,14.68
2023-03-02T23:28:12.116Z,16.48
2023-03-02T23:31:15.316Z,11.95
2023-03-02T23:34:19.644Z,13.52
2023-03-02T23:37:22.580Z,16.17
2023-03-02T23:40:25.546Z,18.67
2023-03-02T23:43:28.516Z,12.00
2023-03-02T23:46:31.819Z,22.00
2023-03-02T23:49:36.077Z,14.32
2023-03-02T23:52:39.395Z,11.10
2023-03-02T23:55:47.787Z,12.45
2023-03-02T23:58:50.741Z,12.43
